createdAt,value
2019-05-12T00:00:32.821Z,8.10
2019-05-12T00:03:01.430Z,8.30
2019-05-12T00:05:29.496Z,8.40
2019-05-12T00:07:58.870Z,8.20
2019-05-12T00:10:28.238Z,8.20
2019-05-12T00:12:58.229Z,8.30
2019-05-12T00:15:28.065Z,8.20
2019-05-12T00:17:58.542Z,8.20
2019-05-12T00:20:28.336Z,8.20
2019-05-12T00:22:59.890Z,8.30
2019-05-12T00:25:28.493Z,8.20
2019-05-12T00:27:58.680Z,8.30
2019-05-12T00:30:42.111Z,8.40
2019-05-12T00:33:10.179Z,8.30
2019-05-12T00:35:38.734Z,8.30
2019-05-12T00:38:09.071Z,8.30
2019-05-12T00:40:39.175Z,8.40
2019-05-12T00:43:08.657Z,8.50
2019-05-12T00:45:38.496Z,8.40
2019-05-12T00:48:09.084Z,8.30
2019-05-12T00:50:38.171Z,8.30
2019-05-12T00:53:08.999Z,8.30
2019-05-12T00:55:38.017Z,8.20
2019-05-12T00:58:08.284Z,8.10
2019-05-12T01:00:40.493Z,8.10
2019-05-12T01:03:08.763Z,8.10
2019-05-12T01:05:38.486Z,8.00
2019-05-12T01:08:08.911Z,8.10
2019-05-12T01:10:38.894Z,8.00
2019-05-12T01:13:08.583Z,8.20
2019-05-12T01:15:37.748Z,8.10
2019-05-12T01:18:08.902Z,8.10
2019-05-12T01:20:38.823Z,8.10
2019-05-12T01:23:08.559Z,8.20
2019-05-12T01:25:39.661Z,8.20
2019-05-12T01:28:08.209Z,8.20
2019-05-12T01:30:38.674Z,8.10
2019-05-12T01:33:08.518Z,8.20
2019-05-12T01:35:38.705Z,8.30
2019-05-12T01:38:07.964Z,8.30
2019-05-12T01:40:39.308Z,8.00
2019-05-12T01:43:08.572Z,7.90
2019-05-12T01:45:37.940Z,8.00
2019-05-12T01:48:08.539Z,8.10
2019-05-12T01:50:38.667Z,8.20
2019-05-12T01:53:08.197Z,8.10
2019-05-12T01:55:38.656Z,8.10
2019-05-12T01:58:08.314Z,8.20
2019-05-12T02:00:38.870Z,8.40
2019-05-12T02:03:09.099Z,8.30
2019-05-12T02:08:42.007Z,8.10
2019-05-12T02:11:28.888Z,8.10
2019-05-12T02:13:58.031Z,8.10
2019-05-12T02:16:28.190Z,8.20
2019-05-12T02:18:58.284Z,8.30
2019-05-12T02:21:27.964Z,8.20
2019-05-12T02:23:58.161Z,8.30
2019-05-12T02:26:26.442Z,8.20
2019-05-12T02:28:54.947Z,8.30
2019-05-12T02:31:23.557Z,8.40
2019-05-12T02:33:55.028Z,8.30
2019-05-12T02:36:25.843Z,8.20
2019-05-12T02:38:55.904Z,8.30
2019-05-12T02:41:26.016Z,8.30
2019-05-12T02:43:55.379Z,8.50
2019-05-12T02:46:25.616Z,8.40
2019-05-12T02:48:54.745Z,8.40
2019-05-12T02:51:24.795Z,8.40
2019-05-12T02:53:54.637Z,8.50
2019-05-12T02:56:25.682Z,8.40
2019-05-12T02:58:54.432Z,8.40
2019-05-12T03:01:24.680Z,8.20
2019-05-12T03:03:55.079Z,8.30
2019-05-12T03:06:25.305Z,8.30
2019-05-12T03:08:56.042Z,8.00
2019-05-12T03:11:28.416Z,8.10
2019-05-12T03:13:56.608Z,8.10
2019-05-12T03:16:25.692Z,8.20
2019-05-12T03:18:55.401Z,8.20
2019-05-12T03:21:24.635Z,8.20
2019-05-12T03:23:55.123Z,8.30
2019-05-12T03:26:24.734Z,8.10
2019-05-12T03:28:55.610Z,8.40
2019-05-12T03:31:30.636Z,8.20
2019-05-12T03:33:59.703Z,8.30
2019-05-12T03:36:32.367Z,8.30
2019-05-12T03:38:55.196Z,8.30
2019-05-12T03:41:25.033Z,8.40
2019-05-12T03:43:54.976Z,8.20
2019-05-12T03:46:24.825Z,8.20
2019-05-12T03:48:55.338Z,8.20
2019-05-12T03:51:25.074Z,8.20
2019-05-12T03:53:55.679Z,8.20
2019-05-12T03:56:25.920Z,8.20
2019-05-12T03:58:54.472Z,8.30
2019-05-12T04:01:25.594Z,8.30
2019-05-12T04:04:09.006Z,8.30
2019-05-12T04:06:37.336Z,8.10
2019-05-12T04:09:07.184Z,8.00
2019-05-12T04:11:36.108Z,8.20
2019-05-12T04:14:05.581Z,8.30
2019-05-12T04:16:36.401Z,8.30
2019-05-12T04:19:05.636Z,8.40
2019-05-12T04:21:35.249Z,8.50
2019-05-12T04:24:05.390Z,8.60
2019-05-12T04:26:36.443Z,8.50
2019-05-12T04:29:05.122Z,8.40
2019-05-12T04:31:34.970Z,8.40
2019-05-12T04:34:05.244Z,8.40
2019-05-12T04:36:35.470Z,8.40
2019-05-12T04:39:05.537Z,8.50
2019-05-12T04:41:35.439Z,8.50
2019-05-12T04:44:05.820Z,8.50
2019-05-12T04:46:35.421Z,8.70
2019-05-12T04:49:05.217Z,8.60
2019-05-12T04:51:35.109Z,8.60
2019-05-12T04:54:05.713Z,8.50
2019-05-12T04:56:35.866Z,8.30
2019-05-12T04:59:05.161Z,8.30
2019-05-12T05:01:34.616Z,8.20
2019-05-12T05:04:05.363Z,8.20
2019-05-12T05:06:34.415Z,8.30
2019-05-12T05:09:05.724Z,8.10
2019-05-12T05:11:34.643Z,8.30
2019-05-12T05:14:04.239Z,8.30
2019-05-12T05:16:34.607Z,8.60
2019-05-12T05:19:03.628Z,8.80
2019-05-12T05:21:34.551Z,8.70
2019-05-12T05:24:03.847Z,8.90
2019-05-12T05:26:36.992Z,9.30
2019-05-12T05:29:04.258Z,9.40
2019-05-12T05:31:33.691Z,9.50
2019-05-12T05:34:04.415Z,9.70
2019-05-12T05:36:34.364Z,10.60
2019-05-12T05:39:04.824Z,10.60
2019-05-12T05:41:34.497Z,11.10
2019-05-12T05:44:03.278Z,10.70
2019-05-12T05:46:33.639Z,10.40
2019-05-12T05:49:04.073Z,10.20
2019-05-12T05:51:30.571Z,10.10
2019-05-12T05:53:58.524Z,9.80
2019-05-12T05:56:38.773Z,9.90
2019-05-12T05:58:56.578Z,9.80
2019-05-12T06:01:24.773Z,9.90
2019-05-12T06:03:53.248Z,10.30
2019-05-12T06:06:23.639Z,11.00
2019-05-12T06:08:58.650Z,10.70
2019-05-12T06:11:28.595Z,10.60
2019-05-12T06:13:56.934Z,10.80
2019-05-12T06:16:25.203Z,10.70
2019-05-12T06:18:54.430Z,10.50
2019-05-12T06:21:24.143Z,10.50
2019-05-12T06:23:54.059Z,10.30
2019-05-12T06:26:30.924Z,10.40
2019-05-12T06:28:54.985Z,10.40
2019-05-12T06:31:28.293Z,10.30
2019-05-12T06:33:53.632Z,10.30
2019-05-12T06:36:24.873Z,10.50
2019-05-12T06:38:53.973Z,10.30
2019-05-12T06:41:25.661Z,10.20
2019-05-12T06:43:53.938Z,10.20
2019-05-12T06:46:23.670Z,10.00
2019-05-12T06:48:51.674Z,10.20
2019-05-12T06:51:24.674Z,10.20
2019-05-12T06:53:49.600Z,10.20
2019-05-12T06:56:19.790Z,10.50
2019-05-12T06:58:47.523Z,11.00
2019-05-12T07:01:19.538Z,11.10
2019-05-12T07:03:45.451Z,10.80
2019-05-12T07:06:19.569Z,10.90
2019-05-12T07:08:44.508Z,10.70
2019-05-12T07:11:14.346Z,10.70
2019-05-12T07:13:43.662Z,10.80
2019-05-12T07:16:19.905Z,10.70
2019-05-12T07:18:45.247Z,10.60
2019-05-12T07:21:17.881Z,10.70
2019-05-12T07:23:44.448Z,10.80
2019-05-12T07:26:19.125Z,11.20
2019-05-12T07:28:44.258Z,11.60
2019-05-12T07:31:14.212Z,11.90
2019-05-12T07:33:45.691Z,12.30
2019-05-12T07:36:14.444Z,12.90
2019-05-12T07:38:43.918Z,12.80
2019-05-12T07:41:14.411Z,12.40
2019-05-12T07:43:44.452Z,12.50
2019-05-12T07:46:13.571Z,12.40
2019-05-12T07:48:50.703Z,12.40
2019-05-12T07:51:16.333Z,12.30
2019-05-12T07:53:52.038Z,11.90
2019-05-12T07:56:14.489Z,11.80
2019-05-12T07:58:53.027Z,11.70
2019-05-12T08:01:17.050Z,11.20
2019-05-12T08:03:44.339Z,10.90
2019-05-12T08:06:14.207Z,10.80
2019-05-12T08:08:50.212Z,10.60
2019-05-12T08:11:14.761Z,10.50
2019-05-12T08:13:54.548Z,10.60
2019-05-12T08:16:25.787Z,10.80
2019-05-12T08:18:53.381Z,11.20
2019-05-12T08:21:20.506Z,11.10
2019-05-12T08:23:47.989Z,11.30
2019-05-12T08:26:18.507Z,11.40
2019-05-12T08:28:44.744Z,11.70
2019-05-12T08:31:14.076Z,11.90
2019-05-12T08:33:43.689Z,12.10
2019-05-12T08:36:16.074Z,12.10
2019-05-12T08:38:44.427Z,12.10
2019-05-12T08:41:14.518Z,12.30
2019-05-12T08:43:47.052Z,12.50
2019-05-12T08:46:15.577Z,12.80
2019-05-12T08:48:45.561Z,12.70
2019-05-12T08:51:16.986Z,12.70
2019-05-12T08:53:44.203Z,12.80
2019-05-12T08:56:18.658Z,12.50
2019-05-12T08:58:48.145Z,12.40
2019-05-12T09:01:13.810Z,12.10
2019-05-12T09:03:44.260Z,12.30
2019-05-12T09:06:15.504Z,12.40
2019-05-12T09:08:48.529Z,12.20
2019-05-12T09:11:13.989Z,12.50
2019-05-12T09:13:43.375Z,12.80
2019-05-12T09:16:13.644Z,12.60
2019-05-12T09:18:43.625Z,12.50
2019-05-12T09:21:13.879Z,12.50
2019-05-12T09:23:44.928Z,12.70
2019-05-12T09:26:13.512Z,12.40
2019-05-12T09:28:47.348Z,12.60
2019-05-12T09:31:13.973Z,13.10
2019-05-12T09:33:44.309Z,13.10
2019-05-12T09:36:19.788Z,13.00
2019-05-12T09:38:43.850Z,13.10
2019-05-12T09:41:13.764Z,13.10
2019-05-12T09:43:46.211Z,13.30
2019-05-12T09:46:14.244Z,13.20
2019-05-12T09:48:45.678Z,13.20
2019-05-12T09:51:13.380Z,13.10
2019-05-12T09:53:45.157Z,13.20
2019-05-12T09:56:13.731Z,12.80
2019-05-12T09:58:43.644Z,12.50
2019-05-12T10:01:13.879Z,12.60
2019-05-12T10:03:43.781Z,12.80
2019-05-12T10:06:17.879Z,13.20
2019-05-12T10:08:43.438Z,13.50
2019-05-12T10:11:16.544Z,14.00
2019-05-12T10:13:41.689Z,14.50
2019-05-12T10:16:09.869Z,14.90
2019-05-12T10:18:45.442Z,14.40
2019-05-12T10:21:10.166Z,13.90
2019-05-12T10:23:37.647Z,14.00
2019-05-12T10:26:09.949Z,14.10
2019-05-12T10:28:35.921Z,14.40
2019-05-12T10:31:04.286Z,15.10
2019-05-12T10:33:33.781Z,15.10
2019-05-12T10:36:06.782Z,15.00
2019-05-12T10:38:34.233Z,14.70
2019-05-12T10:41:03.910Z,14.50
2019-05-12T10:43:34.109Z,14.90
2019-05-12T10:46:04.053Z,15.00
2019-05-12T10:48:33.865Z,15.20
2019-05-12T10:51:02.386Z,15.40
2019-05-12T10:53:30.426Z,15.40
2019-05-12T10:55:58.575Z,15.50
2019-05-12T10:58:26.704Z,15.40
2019-05-12T11:00:59.100Z,14.70
2019-05-12T11:03:25.350Z,14.30
2019-05-12T11:05:56.715Z,14.10
2019-05-12T11:08:24.666Z,14.60
2019-05-12T11:10:57.694Z,15.20
2019-05-12T11:13:23.342Z,15.20
2019-05-12T11:15:51.642Z,15.20
2019-05-12T11:18:26.052Z,15.40
2019-05-12T11:20:50.991Z,15.50
2019-05-12T11:23:19.034Z,15.90
2019-05-12T11:25:46.982Z,16.00
2019-05-12T11:28:14.961Z,15.00
2019-05-12T11:30:46.122Z,14.50
2019-05-12T11:33:15.725Z,14.20
2019-05-12T11:35:45.988Z,13.90
2019-05-12T11:38:17.327Z,14.40
2019-05-12T11:40:46.755Z,14.90
2019-05-12T11:43:24.592Z,15.20
2019-05-12T11:45:55.350Z,15.40
2019-05-12T11:48:31.029Z,15.50
2019-05-12T11:51:03.733Z,15.70
2019-05-12T11:53:38.572Z,15.60
2019-05-12T11:56:09.795Z,15.20
2019-05-12T11:58:41.238Z,14.60
2019-05-12T12:01:19.907Z,14.20
2019-05-12T12:03:48.571Z,14.40
2019-05-12T12:06:16.888Z,14.60
2019-05-12T12:08:44.984Z,14.80
2019-05-12T12:11:18.613Z,14.70
2019-05-12T12:13:44.586Z,15.00
2019-05-12T12:16:14.104Z,15.40
2019-05-12T12:18:46.606Z,15.10
2019-05-12T12:21:14.250Z,15.10
2019-05-12T12:23:48.731Z,14.90
2019-05-12T12:26:30.242Z,14.70
2019-05-12T12:28:58.818Z,14.60
2019-05-12T12:31:34.215Z,14.60
2019-05-12T12:34:00.055Z,15.10
2019-05-12T12:36:34.793Z,15.10
2019-05-12T12:39:05.226Z,15.20
2019-05-12T12:41:34.146Z,15.20
2019-05-12T12:44:04.523Z,15.10
2019-05-12T12:46:33.782Z,15.30
2019-05-12T12:49:06.448Z,15.30
2019-05-12T12:51:34.255Z,15.60
2019-05-12T12:54:03.325Z,15.90
2019-05-12T12:56:31.538Z,16.00
2019-05-12T12:59:04.154Z,16.40
2019-05-12T13:01:32.787Z,16.30
2019-05-12T13:04:04.610Z,16.00
2019-05-12T13:06:31.182Z,16.20
2019-05-12T13:08:59.646Z,16.00
2019-05-12T13:11:33.233Z,16.40
2019-05-12T13:13:58.568Z,16.30
2019-05-12T13:16:26.523Z,16.40
2019-05-12T13:18:55.155Z,16.50
2019-05-12T13:21:23.671Z,16.20
2019-05-12T13:23:53.782Z,16.30
2019-05-12T13:26:23.855Z,16.40
2019-05-12T13:28:53.193Z,16.70
2019-05-12T13:31:24.201Z,16.70
2019-05-12T13:33:54.917Z,16.20
2019-05-12T13:36:24.201Z,15.80
2019-05-12T13:38:52.405Z,15.70
2019-05-12T13:41:20.588Z,15.40
2019-05-12T13:43:54.758Z,15.60
2019-05-12T13:46:19.313Z,15.60
2019-05-12T13:48:49.885Z,15.10
2019-05-12T13:51:19.522Z,15.00
2019-05-12T13:53:50.225Z,15.10
2019-05-12T13:56:19.376Z,15.30
2019-05-12T13:58:45.995Z,15.70
2019-05-12T14:01:19.999Z,15.70
2019-05-12T14:03:46.200Z,15.60
2019-05-12T14:06:10.925Z,15.60
2019-05-12T14:08:37.858Z,15.10
2019-05-12T14:11:04.973Z,15.20
2019-05-12T14:13:44.721Z,15.00
2019-05-12T14:16:11.787Z,14.90
2019-05-12T14:18:38.723Z,14.70
2019-05-12T14:21:05.604Z,14.60
2019-05-12T14:23:34.267Z,14.60
2019-05-12T14:26:02.120Z,14.70
2019-05-12T14:28:30.197Z,14.80
2019-05-12T14:30:57.090Z,14.90
2019-05-12T14:33:24.624Z,15.10
2019-05-12T14:35:53.797Z,15.30
2019-05-12T14:38:27.355Z,15.30
2019-05-12T14:40:50.318Z,15.50
2019-05-12T14:43:21.282Z,15.80
2019-05-12T14:45:47.138Z,16.00
2019-05-12T14:48:14.542Z,15.90
2019-05-12T14:50:43.969Z,16.00
2019-05-12T14:53:10.890Z,15.90
2019-05-12T14:55:38.340Z,15.80
2019-05-12T14:58:09.319Z,15.50
2019-05-12T15:00:34.851Z,15.40
2019-05-12T15:03:05.475Z,15.30
2019-05-12T15:05:33.648Z,15.00
2019-05-12T15:08:01.665Z,14.90
2019-05-12T15:10:30.213Z,14.80
2019-05-12T15:12:58.682Z,14.90
2019-05-12T15:15:26.750Z,14.80
2019-05-12T15:18:02.917Z,14.70
2019-05-12T15:20:25.126Z,14.60
2019-05-12T15:22:55.336Z,14.50
2019-05-12T15:25:23.783Z,14.30
2019-05-12T15:27:54.244Z,14.20
2019-05-12T15:30:26.231Z,14.00
2019-05-12T15:32:53.610Z,13.90
2019-05-12T15:35:23.955Z,13.80
2019-05-12T15:37:55.053Z,13.90
2019-05-12T15:40:23.639Z,14.00
2019-05-12T15:42:55.041Z,13.90
2019-05-12T15:45:23.774Z,13.90
2019-05-12T15:47:53.493Z,13.90
2019-05-12T15:50:23.542Z,13.90
2019-05-12T15:52:54.467Z,13.90
2019-05-12T15:55:25.547Z,14.10
2019-05-12T15:57:52.171Z,14.20
2019-05-12T16:00:20.286Z,14.10
2019-05-12T16:02:48.682Z,14.10
2019-05-12T16:05:19.990Z,14.10
2019-05-12T16:07:47.682Z,14.10
2019-05-12T16:10:15.987Z,14.20
2019-05-12T16:12:43.955Z,14.00
2019-05-12T16:15:17.268Z,14.00
2019-05-12T16:17:44.066Z,14.00
2019-05-12T16:20:14.248Z,14.00
2019-05-12T16:22:45.021Z,13.90
2019-05-12T16:25:15.203Z,13.90
2019-05-12T16:27:44.681Z,14.10
2019-05-12T16:30:13.953Z,14.00
2019-05-12T16:32:47.291Z,14.10
2019-05-12T16:35:14.394Z,14.10
2019-05-12T16:37:44.176Z,14.30
2019-05-12T16:40:13.681Z,14.30
2019-05-12T16:42:48.145Z,14.20
2019-05-12T16:45:14.178Z,14.20
2019-05-12T16:47:44.781Z,14.40
2019-05-12T16:50:16.104Z,14.40
2019-05-12T16:52:45.425Z,14.60
2019-05-12T16:55:14.118Z,14.60
2019-05-12T16:57:50.915Z,14.80
2019-05-12T17:00:14.396Z,14.60
2019-05-12T17:02:52.438Z,14.80
2019-05-12T17:05:19.999Z,14.60
2019-05-12T17:07:44.122Z,14.50
2019-05-12T17:10:16.476Z,14.50
2019-05-12T17:12:43.663Z,14.40
2019-05-12T17:15:14.648Z,14.40
2019-05-12T17:17:44.567Z,14.30
2019-05-12T17:20:14.126Z,14.20
2019-05-12T17:22:45.764Z,14.20
2019-05-12T17:25:15.231Z,14.10
2019-05-12T17:27:44.878Z,14.00
2019-05-12T17:30:13.818Z,14.20
2019-05-12T17:32:54.850Z,14.40
2019-05-12T17:35:14.706Z,14.30
2019-05-12T17:37:43.651Z,14.20
2019-05-12T17:40:15.539Z,14.30
2019-05-12T17:42:44.213Z,14.30
2019-05-12T17:45:17.993Z,14.20
2019-05-12T17:47:44.570Z,14.20
2019-05-12T17:50:13.767Z,14.10
2019-05-12T17:52:44.145Z,14.00
2019-05-12T17:55:14.611Z,14.00
2019-05-12T17:57:43.812Z,14.00
2019-05-12T18:00:14.069Z,13.90
2019-05-12T18:02:43.947Z,14.00
2019-05-12T18:05:15.645Z,13.70
2019-05-12T18:07:44.353Z,14.00
2019-05-12T18:10:13.592Z,13.90
2019-05-12T18:12:45.225Z,13.90
2019-05-12T18:15:15.042Z,13.90
2019-05-12T18:17:45.281Z,13.80
2019-05-12T18:20:14.617Z,13.70
2019-05-12T18:22:45.191Z,13.80
2019-05-12T18:25:14.628Z,13.70
2019-05-12T18:27:50.392Z,13.70
2019-05-12T18:30:18.924Z,13.80
2019-05-12T18:32:44.844Z,13.90
2019-05-12T18:35:13.827Z,13.90
2019-05-12T18:37:42.221Z,13.80
2019-05-12T18:40:10.724Z,13.90
2019-05-12T18:42:40.073Z,13.80
2019-05-12T18:45:17.895Z,13.90
2019-05-12T18:47:40.366Z,13.70
2019-05-12T18:50:08.118Z,13.70
2019-05-12T18:52:42.648Z,13.80
2019-05-12T18:55:07.427Z,13.50
2019-05-12T18:57:39.327Z,13.50
2019-05-12T19:00:13.807Z,13.40
2019-05-12T19:02:44.187Z,13.40
2019-05-12T19:05:21.268Z,13.40
2019-05-12T19:07:43.878Z,13.40
2019-05-12T19:10:14.146Z,13.40
2019-05-12T19:12:43.954Z,13.40
2019-05-12T19:15:19.513Z,13.40
2019-05-12T19:17:43.735Z,13.40
2019-05-12T19:20:13.634Z,13.20
2019-05-12T19:22:48.306Z,13.10
2019-05-12T19:25:14.654Z,13.00
2019-05-12T19:27:45.697Z,12.90
2019-05-12T19:30:13.927Z,13.00
2019-05-12T19:32:44.972Z,12.90
2019-05-12T19:35:17.942Z,12.80
2019-05-12T19:37:45.353Z,12.60
2019-05-12T19:40:17.090Z,12.60
2019-05-12T19:42:43.929Z,12.60
2019-05-12T19:45:21.288Z,12.60
2019-05-12T19:47:44.293Z,12.50
2019-05-12T19:50:18.262Z,12.40
2019-05-12T19:52:43.729Z,12.30
2019-05-12T19:55:14.090Z,12.30
2019-05-12T19:57:44.092Z,12.30
2019-05-12T20:00:13.867Z,12.20
2019-05-12T20:02:42.285Z,12.10
2019-05-12T20:05:14.062Z,12.10
2019-05-12T20:07:41.454Z,12.00
2019-05-12T20:10:16.504Z,11.70
2019-05-12T20:12:43.746Z,11.60
2019-05-12T20:15:14.755Z,11.60
2019-05-12T20:17:41.433Z,11.60
2019-05-12T20:20:09.169Z,11.60
2019-05-12T20:22:37.598Z,11.60
2019-05-12T20:25:06.063Z,11.50
2019-05-12T20:27:34.706Z,11.50
2019-05-12T20:30:08.810Z,11.40
2019-05-12T20:32:37.262Z,11.30
2019-05-12T20:35:05.098Z,11.30
2019-05-12T20:37:33.688Z,11.30
2019-05-12T20:40:05.281Z,11.40
2019-05-12T20:42:41.946Z,11.40
2019-05-12T20:45:05.289Z,11.40
2019-05-12T20:47:33.903Z,11.30
2019-05-12T20:50:04.464Z,11.30
2019-05-12T20:52:34.218Z,11.40
2019-05-12T20:55:03.738Z,11.20
2019-05-12T20:57:34.365Z,11.20
2019-05-12T21:00:04.843Z,11.20
2019-05-12T21:02:33.839Z,11.10
2019-05-12T21:05:09.464Z,11.10
2019-05-12T21:07:33.833Z,11.00
2019-05-12T21:10:04.064Z,10.90
2019-05-12T21:12:33.432Z,11.00
2019-05-12T21:15:13.755Z,10.80
2019-05-12T21:17:40.599Z,10.90
2019-05-12T21:20:04.459Z,10.70
2019-05-12T21:22:34.131Z,10.60
2019-05-12T21:25:04.169Z,10.70
2019-05-12T21:27:33.422Z,10.60
2019-05-12T21:30:09.869Z,10.60
2019-05-12T21:32:33.769Z,10.50
2019-05-12T21:35:15.833Z,10.50
2019-05-12T21:37:37.064Z,10.70
2019-05-12T21:40:03.623Z,10.60
2019-05-12T21:42:33.859Z,10.40
2019-05-12T21:45:04.506Z,10.40
2019-05-12T21:47:36.422Z,10.40
2019-05-12T21:50:03.663Z,10.40
2019-05-12T21:52:37.259Z,10.40
2019-05-12T21:55:05.952Z,10.30
2019-05-12T21:57:34.396Z,10.20
2019-05-12T22:00:04.598Z,10.10
2019-05-12T22:02:34.136Z,10.00
2019-05-12T22:05:04.177Z,10.10
2019-05-12T22:07:38.016Z,10.10
2019-05-12T22:10:04.782Z,9.90
2019-05-12T22:12:33.489Z,9.90
2019-05-12T22:15:03.749Z,9.80
2019-05-12T22:17:54.268Z,9.70
2019-05-12T22:20:23.649Z,9.70
2019-05-12T22:22:52.125Z,9.70
2019-05-12T22:25:20.599Z,9.70
2019-05-12T22:27:48.998Z,9.70
2019-05-12T22:30:17.441Z,9.50
2019-05-12T22:32:45.843Z,9.50
2019-05-12T22:35:21.613Z,9.60
2019-05-12T22:37:45.094Z,9.50
2019-05-12T22:40:18.010Z,9.30
2019-05-12T22:42:44.514Z,9.50
2019-05-12T22:45:15.089Z,9.60
2019-05-12T22:47:43.971Z,9.50
2019-05-12T22:50:13.568Z,9.50
2019-05-12T22:52:47.268Z,9.50
2019-05-12T22:55:13.965Z,9.50
2019-05-12T22:57:43.493Z,9.30
2019-05-12T23:00:19.302Z,9.20
2019-05-12T23:02:44.617Z,9.20
2019-05-12T23:05:19.030Z,9.20
2019-05-12T23:07:43.946Z,9.10
2019-05-12T23:10:14.263Z,9.00
2019-05-12T23:12:44.661Z,8.90
2019-05-12T23:15:13.713Z,9.00
2019-05-12T23:17:45.202Z,9.00
2019-05-12T23:20:13.725Z,8.90
2019-05-12T23:22:43.761Z,8.90
2019-05-12T23:25:19.990Z,8.90
2019-05-12T23:27:44.214Z,8.90
2019-05-12T23:30:13.440Z,8.90
2019-05-12T23:32:51.138Z,8.80
2019-05-12T23:35:14.410Z,8.80
2019-05-12T23:37:44.104Z,8.90
2019-05-12T23:40:16.399Z,9.00
2019-05-12T23:42:44.460Z,8.90
2019-05-12T23:45:13.977Z,8.90
2019-05-12T23:47:43.985Z,8.90
2019-05-12T23:50:14.130Z,8.90
2019-05-12T23:52:44.005Z,8.80
2019-05-12T23:55:13.845Z,8.80
2019-05-12T23:57:44.383Z,8.70
